sensor_id;sensor_type;location;lat;lon;timestamp;noise_LAeq;noise_LA_min;noise_LA_max;noise_LA01;noise_LA95
42701;Laerm;28316;49.504;8.526;2023-05-13T00:01:23;37.85;35.04;40.13;;
42701;Laerm;28316;49.504;8.526;2023-05-13T00:03:49;37.80;35.04;40.33;;
42701;Laerm;28316;49.504;8.526;2023-05-13T00:06:15;37.79;34.31;40.43;;
42701;Laerm;28316;49.504;8.526;2023-05-13T00:08:41;37.73;34.69;53.18;;
42701;Laerm;28316;49.504;8.526;2023-05-13T00:11:07;37.66;35.04;52.13;;
42701;Laerm;28316;49.504;8.526;2023-05-13T00:13:33;37.55;34.31;40.23;;
42701;Laerm;28316;49.504;8.526;2023-05-13T00:15:59;37.50;34.31;40.23;;
42701;Laerm;28316;49.504;8.526;2023-05-13T00:18:24;37.47;34.31;39.81;;
42701;Laerm;28316;49.504;8.526;2023-05-13T00:20:50;37.43;34.31;39.92;;
42701;Laerm;28316;49.504;8.526;2023-05-13T00:23:16;37.44;34.31;39.92;;
42701;Laerm;28316;49.504;8.526;2023-05-13T00:25:42;41.78;34.69;76.00;;
42701;Laerm;28316;49.504;8.526;2023-05-13T00:28:10;37.41;33.90;39.81;;
42701;Laerm;28316;49.504;8.526;2023-05-13T00:30:36;37.35;33.90;39.81;;
42701;Laerm;28316;49.504;8.526;2023-05-13T00:33:01;37.33;33.90;39.81;;
42701;Laerm;28316;49.504;8.526;2023-05-13T00:35:27;37.33;33.90;43.68;;
42701;Laerm;28316;49.504;8.526;2023-05-13T00:37:53;37.25;34.31;39.92;;
42701;Laerm;28316;49.504;8.526;2023-05-13T00:40:21;37.17;33.44;39.70;;
42701;Laerm;28316;49.504;8.526;2023-05-13T00:42:47;37.14;33.90;39.58;;
42701;Laerm;28316;49.504;8.526;2023-05-13T00:45:13;37.12;33.44;39.70;;
42701;Laerm;28316;49.504;8.526;2023-05-13T00:47:40;37.06;33.44;39.58;;
42701;Laerm;28316;49.504;8.526;2023-05-13T00:50:08;37.03;32.93;40.23;;
42701;Laerm;28316;49.504;8.526;2023-05-13T00:52:37;36.97;32.93;39.70;;
42701;Laerm;28316;49.504;8.526;2023-05-13T00:55:03;36.90;31.68;39.70;;
42701;Laerm;28316;49.504;8.526;2023-05-13T00:57:30;36.84;32.93;39.58;;
42701;Laerm;28316;49.504;8.526;2023-05-13T00:59:55;36.73;31.68;40.13;;
42701;Laerm;28316;49.504;8.526;2023-05-13T01:02:31;36.65;32.35;39.81;;
42701;Laerm;28316;49.504;8.526;2023-05-13T01:11:05;36.68;32.35;39.81;;
42701;Laerm;28316;49.504;8.526;2023-05-13T01:13:37;36.70;31.68;39.21;;
42701;Laerm;28316;49.504;8.526;2023-05-13T01:19:16;36.74;31.68;39.34;;
42701;Laerm;28316;49.504;8.526;2023-05-13T01:21:52;36.75;31.68;39.34;;
42701;Laerm;28316;49.504;8.526;2023-05-13T01:24:19;36.74;32.35;39.46;;
42701;Laerm;28316;49.504;8.526;2023-05-13T01:26:45;36.73;31.68;39.46;;
42701;Laerm;28316;49.504;8.526;2023-05-13T01:29:10;36.72;31.68;39.46;;
42701;Laerm;28316;49.504;8.526;2023-05-13T01:31:38;36.71;31.68;40.13;;
42701;Laerm;28316;49.504;8.526;2023-05-13T01:34:06;36.72;32.00;39.46;;
42701;Laerm;28316;49.504;8.526;2023-05-13T01:36:36;36.71;31.68;39.46;;
42701;Laerm;28316;49.504;8.526;2023-05-13T01:39:02;36.69;32.35;39.81;;
42701;Laerm;28316;49.504;8.526;2023-05-13T01:41:28;36.65;32.35;39.34;;
42701;Laerm;28316;49.504;8.526;2023-05-13T01:43:54;36.63;32.35;39.34;;
42701;Laerm;28316;49.504;8.526;2023-05-13T01:46:20;36.65;30.89;39.35;;
42701;Laerm;28316;49.504;8.526;2023-05-13T01:48:46;38.00;32.35;68.53;;
42701;Laerm;28316;49.504;8.526;2023-05-13T01:51:12;36.60;31.68;39.21;;
42701;Laerm;28316;49.504;8.526;2023-05-13T01:53:38;36.58;32.35;39.70;;
42701;Laerm;28316;49.504;8.526;2023-05-13T01:56:04;36.56;31.68;39.58;;
42701;Laerm;28316;49.504;8.526;2023-05-13T01:58:30;36.53;31.68;39.34;;
42701;Laerm;28316;49.504;8.526;2023-05-13T02:00:55;36.47;31.68;39.34;;
42701;Laerm;28316;49.504;8.526;2023-05-13T02:03:21;36.50;30.89;39.46;;
42701;Laerm;28316;49.504;8.526;2023-05-13T02:05:47;36.43;29.92;39.46;;
42701;Laerm;28316;49.504;8.526;2023-05-13T02:08:13;36.46;28.67;39.08;;
42701;Laerm;28316;49.504;8.526;2023-05-13T02:10:39;36.45;26.91;39.34;;
42701;Laerm;28316;49.504;8.526;2023-05-13T02:13:04;36.43;26.91;39.58;;
42701;Laerm;28316;49.504;8.526;2023-05-13T02:15:30;36.41;30.89;39.34;;
42701;Laerm;28316;49.504;8.526;2023-05-13T02:17:56;36.38;30.89;39.08;;
42701;Laerm;28316;49.504;8.526;2023-05-13T02:20:21;36.38;30.89;38.95;;
42701;Laerm;28316;49.504;8.526;2023-05-13T02:22:47;36.36;31.68;39.34;;
42701;Laerm;28316;49.504;8.526;2023-05-13T02:25:13;36.33;26.91;38.95;;
42701;Laerm;28316;49.504;8.526;2023-05-13T02:27:38;36.34;30.89;39.21;;
42701;Laerm;28316;49.504;8.526;2023-05-13T02:30:05;36.38;29.92;39.21;;
42701;Laerm;28316;49.504;8.526;2023-05-13T02:32:31;36.41;26.91;39.08;;
42701;Laerm;28316;49.504;8.526;2023-05-13T02:34:57;36.37;29.92;39.46;;
42701;Laerm;28316;49.504;8.526;2023-05-13T02:37:23;36.42;29.92;39.08;;
42701;Laerm;28316;49.504;8.526;2023-05-13T02:39:49;36.40;30.89;39.08;;
42701;Laerm;28316;49.504;8.526;2023-05-13T02:42:14;36.42;30.89;39.58;;
42701;Laerm;28316;49.504;8.526;2023-05-13T02:44:40;36.45;29.92;39.21;;
42701;Laerm;28316;49.504;8.526;2023-05-13T02:47:06;36.45;29.92;39.21;;
42701;Laerm;28316;49.504;8.526;2023-05-13T02:49:31;36.47;31.68;39.46;;
42701;Laerm;28316;49.504;8.526;2023-05-13T02:51:57;36.49;31.68;39.21;;
42701;Laerm;28316;49.504;8.526;2023-05-13T02:54:23;36.49;29.92;39.34;;
42701;Laerm;28316;49.504;8.526;2023-05-13T02:56:49;36.49;31.68;39.58;;
42701;Laerm;28316;49.504;8.526;2023-05-13T02:59:15;36.52;29.92;39.70;;
42701;Laerm;28316;49.504;8.526;2023-05-13T03:01:40;36.54;30.89;39.58;;
42701;Laerm;28316;49.504;8.526;2023-05-13T03:04:06;36.56;30.89;39.46;;
42701;Laerm;28316;49.504;8.526;2023-05-13T03:06:32;36.56;31.68;39.70;;
42701;Laerm;28316;49.504;8.526;2023-05-13T03:08:58;36.57;30.89;39.34;;
42701;Laerm;28316;49.504;8.526;2023-05-13T03:11:23;36.55;28.67;39.21;;
42701;Laerm;28316;49.504;8.526;2023-05-13T03:13:49;36.55;32.35;39.46;;
42701;Laerm;28316;49.504;8.526;2023-05-13T03:16:15;36.53;30.89;39.34;;
42701;Laerm;28316;49.504;8.526;2023-05-13T03:18:40;36.51;31.33;39.58;;
42701;Laerm;28316;49.504;8.526;2023-05-13T03:21:06;36.54;31.68;39.21;;
42701;Laerm;28316;49.504;8.526;2023-05-13T03:23:32;36.50;30.89;39.34;;
42701;Laerm;28316;49.504;8.526;2023-05-13T03:25:58;36.50;31.68;39.21;;
42701;Laerm;28316;49.504;8.526;2023-05-13T03:28:24;36.48;29.92;39.34;;
42701;Laerm;28316;49.504;8.526;2023-05-13T03:30:50;36.46;30.89;39.21;;
42701;Laerm;28316;49.504;8.526;2023-05-13T03:33:15;36.45;30.89;39.34;;
42701;Laerm;28316;49.504;8.526;2023-05-13T03:35:41;36.45;26.91;39.34;;
42701;Laerm;28316;49.504;8.526;2023-05-13T03:38:07;36.43;29.92;39.34;;
42701;Laerm;28316;49.504;8.526;2023-05-13T03:40:33;36.45;30.89;39.58;;
42701;Laerm;28316;49.504;8.526;2023-05-13T03:42:59;36.45;29.92;39.70;;
42701;Laerm;28316;49.504;8.526;2023-05-13T03:45:25;36.46;31.68;39.58;;
42701;Laerm;28316;49.504;8.526;2023-05-13T03:47:50;36.44;30.89;39.81;;
42701;Laerm;28316;49.504;8.526;2023-05-13T03:50:16;36.43;31.68;39.46;;
42701;Laerm;28316;49.504;8.526;2023-05-13T03:52:42;36.43;31.68;39.34;;
42701;Laerm;28316;49.504;8.526;2023-05-13T03:55:08;36.46;30.89;39.34;;
42701;Laerm;28316;49.504;8.526;2023-05-13T03:57:34;36.44;31.68;39.08;;
42701;Laerm;28316;49.504;8.526;2023-05-13T03:59:59;36.46;29.92;39.08;;
42701;Laerm;28316;49.504;8.526;2023-05-13T04:02:25;36.44;31.68;39.21;;
42701;Laerm;28316;49.504;8.526;2023-05-13T04:04:51;36.47;30.54;39.34;;
42701;Laerm;28316;49.504;8.526;2023-05-13T04:07:16;36.47;29.92;39.08;;
42701;Laerm;28316;49.504;8.526;2023-05-13T04:09:42;36.47;30.89;39.34;;
42701;Laerm;28316;49.504;8.526;2023-05-13T04:12:08;36.52;31.68;39.21;;
42701;Laerm;28316;49.504;8.526;2023-05-13T04:14:34;36.52;29.92;39.34;;
42701;Laerm;28316;49.504;8.526;2023-05-13T04:16:59;36.53;30.89;39.58;;
42701;Laerm;28316;49.504;8.526;2023-05-13T04:19:25;36.54;31.68;39.34;;
42701;Laerm;28316;49.504;8.526;2023-05-13T04:21:51;36.57;30.89;39.34;;
42701;Laerm;28316;49.504;8.526;2023-05-13T04:24:17;36.61;29.92;39.81;;
42701;Laerm;28316;49.504;8.526;2023-05-13T04:26:42;36.64;30.89;39.58;;
42701;Laerm;28316;49.504;8.526;2023-05-13T04:29:08;36.72;31.68;39.34;;
42701;Laerm;28316;49.504;8.526;2023-05-13T04:31:34;36.72;32.35;39.58;;
42701;Laerm;28316;49.504;8.526;2023-05-13T04:33:59;36.78;32.35;39.58;;
42701;Laerm;28316;49.504;8.526;2023-05-13T04:36:25;36.83;32.93;39.46;;
42701;Laerm;28316;49.504;8.526;2023-05-13T04:38:51;36.88;31.68;39.70;;
42701;Laerm;28316;49.504;8.526;2023-05-13T04:41:17;36.89;32.35;39.46;;
42701;Laerm;28316;49.504;8.526;2023-05-13T04:43:46;36.97;32.93;39.58;;
42701;Laerm;28316;49.504;8.526;2023-05-13T04:46:12;37.02;32.35;39.46;;
42701;Laerm;28316;49.504;8.526;2023-05-13T04:48:37;37.10;33.44;40.03;;
42701;Laerm;28316;49.504;8.526;2023-05-13T04:51:03;37.16;33.90;40.53;;
42701;Laerm;28316;49.504;8.526;2023-05-13T04:53:29;37.18;34.31;40.13;;
42701;Laerm;28316;49.504;8.526;2023-05-13T04:55:54;37.18;33.44;39.92;;
42701;Laerm;28316;49.504;8.526;2023-05-13T04:58:26;37.23;32.93;40.13;;
42701;Laerm;28316;49.504;8.526;2023-05-13T05:00:52;37.23;33.44;39.81;;
42701;Laerm;28316;49.504;8.526;2023-05-13T05:03:19;37.28;33.90;39.70;;
42701;Laerm;28316;49.504;8.526;2023-05-13T05:05:45;37.34;33.44;39.70;;
42701;Laerm;28316;49.504;8.526;2023-05-13T05:08:11;37.46;34.31;40.13;;
42701;Laerm;28316;49.504;8.526;2023-05-13T05:10:36;37.55;34.31;39.81;;
42701;Laerm;28316;49.504;8.526;2023-05-13T05:13:02;37.66;34.31;40.03;;
42701;Laerm;28316;49.504;8.526;2023-05-13T05:15:28;37.70;34.69;40.03;;
42701;Laerm;28316;49.504;8.526;2023-05-13T05:17:54;37.74;34.31;39.92;;
42701;Laerm;28316;49.504;8.526;2023-05-13T05:20:20;37.80;35.04;40.23;;
42701;Laerm;28316;49.504;8.526;2023-05-13T05:22:45;37.82;35.04;40.36;;
42701;Laerm;28316;49.504;8.526;2023-05-13T05:25:12;37.89;34.69;40.33;;
42701;Laerm;28316;49.504;8.526;2023-05-13T05:27:38;37.96;35.01;40.43;;
42701;Laerm;28316;49.504;8.526;2023-05-13T05:30:05;38.01;35.04;40.23;;
42701;Laerm;28316;49.504;8.526;2023-05-13T05:32:31;38.09;35.36;40.80;;
42701;Laerm;28316;49.504;8.526;2023-05-13T05:34:58;38.07;35.04;40.33;;
42701;Laerm;28316;49.504;8.526;2023-05-13T05:37:27;38.06;35.04;40.43;;
42701;Laerm;28316;49.504;8.526;2023-05-13T05:39:53;38.26;35.36;40.53;;
42701;Laerm;28316;49.504;8.526;2023-05-13T05:42:19;38.17;35.04;40.43;;
42701;Laerm;28316;49.504;8.526;2023-05-13T05:44:45;38.28;35.04;40.53;;
42701;Laerm;28316;49.504;8.526;2023-05-13T05:47:12;38.48;35.94;40.89;;
42701;Laerm;28316;49.504;8.526;2023-05-13T05:49:38;38.58;36.20;40.80;;
42701;Laerm;28316;49.504;8.526;2023-05-13T05:52:04;38.56;36.20;40.43;;
42701;Laerm;28316;49.504;8.526;2023-05-13T05:54:29;38.62;35.94;40.62;;
42701;Laerm;28316;49.504;8.526;2023-05-13T05:56:55;38.71;36.20;40.62;;
42701;Laerm;28316;49.504;8.526;2023-05-13T05:59:21;38.86;36.45;40.80;;
42701;Laerm;28316;49.504;8.526;2023-05-13T06:01:47;38.95;36.69;40.98;;
42701;Laerm;28316;49.504;8.526;2023-05-13T06:04:12;39.03;36.91;40.71;;
42701;Laerm;28316;49.504;8.526;2023-05-13T06:06:38;39.15;37.12;40.89;;
42701;Laerm;28316;49.504;8.526;2023-05-13T06:09:05;39.56;37.32;41.38;;
42701;Laerm;28316;49.504;8.526;2023-05-13T06:11:31;39.89;38.05;41.22;;
42701;Laerm;28316;49.504;8.526;2023-05-13T06:13:56;39.96;37.70;41.68;;
42701;Laerm;28316;49.504;8.526;2023-05-13T06:16:22;40.33;38.37;41.75;;
42701;Laerm;28316;49.504;8.526;2023-05-13T06:18:48;40.86;39.46;42.29;;
42701;Laerm;28316;49.504;8.526;2023-05-13T06:21:14;41.18;39.68;42.36;;
42701;Laerm;28316;49.504;8.526;2023-05-13T06:23:40;41.44;40.23;42.53;;
42701;Laerm;28316;49.504;8.526;2023-05-13T06:26:05;41.62;40.27;42.88;;
42701;Laerm;28316;49.504;8.526;2023-05-13T06:28:31;41.69;40.43;42.76;;
42701;Laerm;28316;49.504;8.526;2023-05-13T06:30:57;41.82;40.62;42.88;;
42701;Laerm;28316;49.504;8.526;2023-05-13T06:33:23;41.84;40.62;42.98;;
42701;Laerm;28316;49.504;8.526;2023-05-13T06:35:48;41.86;40.33;43.09;;
42701;Laerm;28316;49.504;8.526;2023-05-13T06:38:15;41.87;40.53;43.09;;
42701;Laerm;28316;49.504;8.526;2023-05-13T06:40:44;41.85;40.43;43.04;;
42701;Laerm;28316;49.504;8.526;2023-05-13T06:43:11;41.85;40.33;42.98;;
42701;Laerm;28316;49.504;8.526;2023-05-13T06:45:39;41.89;40.53;43.04;;
42701;Laerm;28316;49.504;8.526;2023-05-13T06:48:05;41.96;40.62;43.14;;
42701;Laerm;28316;49.504;8.526;2023-05-13T06:50:30;41.91;40.53;43.00;;
42701;Laerm;28316;49.504;8.526;2023-05-13T06:52:56;41.97;40.71;43.19;;
42701;Laerm;28316;49.504;8.526;2023-05-13T06:55:23;42.06;40.80;43.04;;
42701;Laerm;28316;49.504;8.526;2023-05-13T06:57:48;42.08;40.71;43.09;;
42701;Laerm;28316;49.504;8.526;2023-05-13T07:00:15;42.13;40.62;43.24;;
42701;Laerm;28316;49.504;8.526;2023-05-13T07:02:41;42.13;40.53;43.34;;
42701;Laerm;28316;49.504;8.526;2023-05-13T07:05:09;42.13;40.80;43.29;;
42701;Laerm;28316;49.504;8.526;2023-05-13T07:07:35;42.11;40.89;43.29;;
42701;Laerm;28316;49.504;8.526;2023-05-13T07:10:01;42.12;40.80;43.39;;
42701;Laerm;28316;49.504;8.526;2023-05-13T07:12:27;42.10;40.71;43.14;;
42701;Laerm;28316;49.504;8.526;2023-05-13T07:14:53;42.11;40.80;43.29;;
42701;Laerm;28316;49.504;8.526;2023-05-13T07:17:19;42.14;40.89;43.29;;
42701;Laerm;28316;49.504;8.526;2023-05-13T07:19:44;42.12;40.89;43.19;;
42701;Laerm;28316;49.504;8.526;2023-05-13T07:22:10;42.12;40.71;43.24;;
42701;Laerm;28316;49.504;8.526;2023-05-13T07:24:36;42.11;40.98;43.19;;
42701;Laerm;28316;49.504;8.526;2023-05-13T07:27:01;42.08;40.80;43.09;;
42701;Laerm;28316;49.504;8.526;2023-05-13T07:29:30;42.06;40.80;43.14;;
42701;Laerm;28316;49.504;8.526;2023-05-13T07:31:56;42.06;40.80;43.14;;
42701;Laerm;28316;49.504;8.526;2023-05-13T07:34:22;42.06;40.62;43.14;;
42701;Laerm;28316;49.504;8.526;2023-05-13T07:36:48;42.02;40.62;43.09;;
42701;Laerm;28316;49.504;8.526;2023-05-13T07:39:13;42.05;40.53;43.19;;
42701;Laerm;28316;49.504;8.526;2023-05-13T07:41:39;42.03;40.71;43.04;;
42701;Laerm;28316;49.504;8.526;2023-05-13T07:44:05;42.03;40.62;43.19;;
42701;Laerm;28316;49.504;8.526;2023-05-13T07:46:36;42.01;40.53;43.04;;
42701;Laerm;28316;49.504;8.526;2023-05-13T07:49:01;42.11;40.53;48.98;;
42701;Laerm;28316;49.504;8.526;2023-05-13T07:51:31;42.03;40.71;43.19;;
42701;Laerm;28316;49.504;8.526;2023-05-13T07:53:56;42.06;40.43;43.14;;
42701;Laerm;28316;49.504;8.526;2023-05-13T07:56:22;42.00;40.33;43.24;;
42701;Laerm;28316;49.504;8.526;2023-05-13T07:58:48;41.98;40.23;43.09;;
42701;Laerm;28316;49.504;8.526;2023-05-13T08:01:15;41.95;40.62;43.24;;
42701;Laerm;28316;49.504;8.526;2023-05-13T08:03:41;41.95;40.13;43.09;;
42701;Laerm;28316;49.504;8.526;2023-05-13T08:06:06;41.88;40.43;43.09;;
42701;Laerm;28316;49.504;8.526;2023-05-13T08:08:32;41.82;40.33;43.04;;
42701;Laerm;28316;49.504;8.526;2023-05-13T08:10:58;41.80;40.43;43.09;;
42701;Laerm;28316;49.504;8.526;2023-05-13T08:13:24;41.75;40.23;43.09;;
42701;Laerm;28316;49.504;8.526;2023-05-13T08:15:50;41.76;39.92;42.93;;
42701;Laerm;28316;49.504;8.526;2023-05-13T08:18:17;41.67;40.18;43.04;;
42701;Laerm;28316;49.504;8.526;2023-05-13T08:20:43;41.66;40.03;42.98;;
42701;Laerm;28316;49.504;8.526;2023-05-13T08:23:08;41.69;39.92;42.93;;
42701;Laerm;28316;49.504;8.526;2023-05-13T08:25:34;41.65;39.81;42.93;;
42701;Laerm;28316;49.504;8.526;2023-05-13T08:28:01;41.54;39.81;42.93;;
42701;Laerm;28316;49.504;8.526;2023-05-13T08:30:28;41.57;39.92;42.82;;
42701;Laerm;28316;49.504;8.526;2023-05-13T08:32:53;41.54;39.81;42.95;;
42701;Laerm;28316;49.504;8.526;2023-05-13T08:35:19;41.45;39.58;42.76;;
42701;Laerm;28316;49.504;8.526;2023-05-13T08:37:46;41.38;39.46;42.76;;
42701;Laerm;28316;49.504;8.526;2023-05-13T08:40:11;41.36;39.46;42.93;;
42701;Laerm;28316;49.504;8.526;2023-05-13T08:42:38;41.32;39.70;42.93;;
42701;Laerm;28316;49.504;8.526;2023-05-13T08:45:06;41.29;39.46;42.71;;
42701;Laerm;28316;49.504;8.526;2023-05-13T08:47:55;41.23;39.46;42.59;;
42701;Laerm;28316;49.504;8.526;2023-05-13T08:50:21;41.23;39.58;42.53;;
42701;Laerm;28316;49.504;8.526;2023-05-13T08:52:50;41.21;39.34;42.47;;
42701;Laerm;28316;49.504;8.526;2023-05-13T08:55:16;41.18;39.46;42.65;;
42701;Laerm;28316;49.504;8.526;2023-05-13T08:57:44;41.14;39.21;42.59;;
42701;Laerm;28316;49.504;8.526;2023-05-13T09:00:10;41.11;39.34;42.71;;
42701;Laerm;28316;49.504;8.526;2023-05-13T09:02:36;41.09;39.08;42.65;;
42701;Laerm;28316;49.504;8.526;2023-05-13T09:05:06;41.06;39.08;42.47;;
42701;Laerm;28316;49.504;8.526;2023-05-13T09:07:34;40.99;38.95;42.41;;
42701;Laerm;28316;49.504;8.526;2023-05-13T09:10:00;41.00;38.95;42.59;;
42701;Laerm;28316;49.504;8.526;2023-05-13T09:12:46;40.96;38.81;42.53;;
42701;Laerm;28316;49.504;8.526;2023-05-13T09:15:15;40.95;38.95;42.47;;
42701;Laerm;28316;49.504;8.526;2023-05-13T09:17:43;41.02;39.08;42.65;;
42701;Laerm;28316;49.504;8.526;2023-05-13T09:20:12;41.09;38.99;42.82;;
42701;Laerm;28316;49.504;8.526;2023-05-13T09:23:00;41.08;39.08;42.59;;
42701;Laerm;28316;49.504;8.526;2023-05-13T09:25:27;41.00;38.81;42.71;;
42701;Laerm;28316;49.504;8.526;2023-05-13T09:27:55;41.01;38.95;42.47;;
42701;Laerm;28316;49.504;8.526;2023-05-13T09:30:37;41.02;39.21;42.59;;
42701;Laerm;28316;49.504;8.526;2023-05-13T09:33:13;41.05;39.08;42.47;;
42701;Laerm;28316;49.504;8.526;2023-05-13T09:35:42;40.97;38.67;42.76;;
42701;Laerm;28316;49.504;8.526;2023-05-13T09:38:28;40.87;38.95;42.98;;
42701;Laerm;28316;49.504;8.526;2023-05-13T09:41:01;40.73;38.81;42.47;;
42701;Laerm;28316;49.504;8.526;2023-05-13T09:43:31;40.66;38.21;42.29;;
42701;Laerm;28316;49.504;8.526;2023-05-13T09:46:01;40.72;38.67;42.53;;
42701;Laerm;28316;49.504;8.526;2023-05-13T09:48:33;40.72;38.37;42.41;;
42701;Laerm;28316;49.504;8.526;2023-05-13T09:50:59;40.63;38.37;42.35;;
42701;Laerm;28316;49.504;8.526;2023-05-13T09:53:26;40.64;38.05;42.76;;
42701;Laerm;28316;49.504;8.526;2023-05-13T09:55:55;40.57;37.70;42.09;;
42701;Laerm;28316;49.504;8.526;2023-05-13T09:58:24;40.61;38.37;42.29;;
42701;Laerm;28316;49.504;8.526;2023-05-13T10:00:52;40.52;38.05;42.16;;
42701;Laerm;28316;49.504;8.526;2023-05-13T10:03:18;40.43;37.88;42.22;;
42701;Laerm;28316;49.504;8.526;2023-05-13T10:05:44;40.45;38.05;42.22;;
42701;Laerm;28316;49.504;8.526;2023-05-13T10:08:13;40.42;37.88;42.29;;
42701;Laerm;28316;49.504;8.526;2023-05-13T10:10:41;40.44;38.05;42.29;;
42701;Laerm;28316;49.504;8.526;2023-05-13T10:13:09;40.44;37.88;42.22;;
42701;Laerm;28316;49.504;8.526;2023-05-13T10:15:51;40.42;37.88;42.16;;
42701;Laerm;28316;49.504;8.526;2023-05-13T10:18:19;40.32;37.88;42.09;;
42701;Laerm;28316;49.504;8.526;2023-05-13T10:20:45;40.22;37.12;42.22;;
42701;Laerm;28316;49.504;8.526;2023-05-13T10:23:12;40.21;37.52;42.03;;
42701;Laerm;28316;49.504;8.526;2023-05-13T10:25:38;40.17;36.91;41.96;;
42701;Laerm;28316;49.504;8.526;2023-05-13T10:28:04;40.15;37.32;42.03;;
42701;Laerm;28316;49.504;8.526;2023-05-13T10:30:30;40.09;36.91;43.77;;
42701;Laerm;28316;49.504;8.526;2023-05-13T10:32:58;40.05;37.12;42.03;;
42701;Laerm;28316;49.504;8.526;2023-05-13T10:35:31;40.17;37.32;46.33;;
42701;Laerm;28316;49.504;8.526;2023-05-13T10:38:16;40.02;37.12;42.03;;
42701;Laerm;28316;49.504;8.526;2023-05-13T10:43:30;39.94;36.91;42.65;;
42701;Laerm;28316;49.504;8.526;2023-05-13T10:45:57;40.01;37.12;44.15;;
42701;Laerm;28316;49.504;8.526;2023-05-13T10:48:24;39.91;37.32;42.71;;
42701;Laerm;28316;49.504;8.526;2023-05-13T10:51:00;39.98;37.12;42.53;;
42701;Laerm;28316;49.504;8.526;2023-05-13T10:53:30;39.83;36.69;41.82;;
42701;Laerm;28316;49.504;8.526;2023-05-13T10:55:58;39.75;36.91;41.96;;
42701;Laerm;28316;49.504;8.526;2023-05-13T10:58:32;39.77;37.12;48.13;;
42701;Laerm;28316;49.504;8.526;2023-05-13T11:01:17;39.64;36.69;41.68;;
42701;Laerm;28316;49.504;8.526;2023-05-13T11:03:58;39.72;35.66;41.75;;
42701;Laerm;28316;49.504;8.526;2023-05-13T11:06:36;39.83;37.12;42.16;;
42701;Laerm;28316;49.504;8.526;2023-05-13T11:11:53;39.80;37.12;41.89;;
42701;Laerm;28316;49.504;8.526;2023-05-13T11:14:24;39.83;37.12;41.75;;
42701;Laerm;28316;49.504;8.526;2023-05-13T11:17:07;39.78;36.91;43.24;;
42701;Laerm;28316;49.504;8.526;2023-05-13T11:19:44;39.79;36.45;42.29;;
42701;Laerm;28316;49.504;8.526;2023-05-13T11:24:44;39.64;36.91;41.82;;
42701;Laerm;28316;49.504;8.526;2023-05-13T11:27:19;39.63;36.20;41.89;;
42701;Laerm;28316;49.504;8.526;2023-05-13T11:29:49;39.72;36.69;41.68;;
42701;Laerm;28316;49.504;8.526;2023-05-13T11:32:54;39.65;36.45;42.03;;
42701;Laerm;28316;49.504;8.526;2023-05-13T11:35:31;39.68;36.45;41.68;;
42701;Laerm;28316;49.504;8.526;2023-05-13T11:38:00;39.61;36.20;41.96;;
42701;Laerm;28316;49.504;8.526;2023-05-13T11:42:54;39.63;37.12;42.29;;
42701;Laerm;28316;49.504;8.526;2023-05-13T11:45:22;39.64;36.56;41.68;;
42701;Laerm;28316;49.504;8.526;2023-05-13T11:47:49;39.67;36.69;41.75;;
42701;Laerm;28316;49.504;8.526;2023-05-13T11:50:26;39.69;35.94;41.68;;
42701;Laerm;28316;49.504;8.526;2023-05-13T11:53:01;39.72;36.20;41.68;;
42701;Laerm;28316;49.504;8.526;2023-05-13T11:55:32;39.78;36.69;41.96;;
42701;Laerm;28316;49.504;8.526;2023-05-13T11:57:59;39.86;36.91;41.68;;
42701;Laerm;28316;49.504;8.526;2023-05-13T12:00:28;39.85;37.32;41.61;;
42701;Laerm;28316;49.504;8.526;2023-05-13T12:02:54;40.16;37.12;57.34;;
42701;Laerm;28316;49.504;8.526;2023-05-13T12:05:21;40.09;37.32;42.53;;
42701;Laerm;28316;49.504;8.526;2023-05-13T12:07:47;40.10;37.32;42.41;;
42701;Laerm;28316;49.504;8.526;2023-05-13T12:10:13;39.86;36.91;44.35;;
42701;Laerm;28316;49.504;8.526;2023-05-13T12:12:42;40.00;37.52;42.03;;
42701;Laerm;28316;49.504;8.526;2023-05-13T12:15:17;40.23;37.52;43.77;;
42701;Laerm;28316;49.504;8.526;2023-05-13T12:17:43;40.28;37.70;43.63;;
42701;Laerm;28316;49.504;8.526;2023-05-13T12:20:16;40.14;37.52;43.39;;
42701;Laerm;28316;49.504;8.526;2023-05-13T12:25:47;39.98;36.91;42.53;;
42701;Laerm;28316;49.504;8.526;2023-05-13T12:28:24;39.91;36.69;44.47;;
42701;Laerm;28316;49.504;8.526;2023-05-13T12:30:57;39.99;37.32;43.72;;
42701;Laerm;28316;49.504;8.526;2023-05-13T12:33:29;40.18;37.12;44.23;;
42701;Laerm;28316;49.504;8.526;2023-05-13T12:36:24;39.87;37.32;43.49;;
42701;Laerm;28316;49.504;8.526;2023-05-13T12:41:23;39.99;36.45;49.52;;
42701;Laerm;28316;49.504;8.526;2023-05-13T12:44:06;39.94;37.12;42.47;;
42701;Laerm;28316;49.504;8.526;2023-05-13T12:46:32;39.89;37.32;42.98;;
42701;Laerm;28316;49.504;8.526;2023-05-13T12:49:02;39.96;37.32;44.80;;
42701;Laerm;28316;49.504;8.526;2023-05-13T12:51:28;39.63;36.45;42.71;;
42701;Laerm;28316;49.504;8.526;2023-05-13T12:53:55;39.59;36.91;42.64;;
42701;Laerm;28316;49.504;8.526;2023-05-13T12:56:24;39.62;36.45;42.93;;
42701;Laerm;28316;49.504;8.526;2023-05-13T12:58:52;39.58;36.69;42.93;;
42701;Laerm;28316;49.504;8.526;2023-05-13T13:01:18;39.57;36.69;43.86;;
42701;Laerm;28316;49.504;8.526;2023-05-13T13:03:44;39.56;36.69;41.75;;
42701;Laerm;28316;49.504;8.526;2023-05-13T13:06:11;39.58;36.69;42.16;;
42701;Laerm;28316;49.504;8.526;2023-05-13T13:08:38;39.58;36.20;42.09;;
42701;Laerm;28316;49.504;8.526;2023-05-13T13:11:04;39.65;36.45;41.68;;
42701;Laerm;28316;49.504;8.526;2023-05-13T13:13:31;39.77;36.69;41.82;;
42701;Laerm;28316;49.504;8.526;2023-05-13T13:15:58;39.75;36.91;42.71;;
42701;Laerm;28316;49.504;8.526;2023-05-13T13:18:24;39.77;36.91;42.88;;
42701;Laerm;28316;49.504;8.526;2023-05-13T13:20:50;39.82;37.12;42.09;;
42701;Laerm;28316;49.504;8.526;2023-05-13T13:23:17;39.71;36.20;41.68;;
42701;Laerm;28316;49.504;8.526;2023-05-13T13:25:44;39.69;36.45;42.09;;
42701;Laerm;28316;49.504;8.526;2023-05-13T13:28:10;39.61;36.20;41.53;;
42701;Laerm;28316;49.504;8.526;2023-05-13T13:30:36;39.56;36.45;42.03;;
42701;Laerm;28316;49.504;8.526;2023-05-13T13:33:02;39.53;36.56;41.38;;
42701;Laerm;28316;49.504;8.526;2023-05-13T13:35:28;39.47;36.10;42.76;;
42701;Laerm;28316;49.504;8.526;2023-05-13T13:37:54;39.45;36.45;41.75;;
42701;Laerm;28316;49.504;8.526;2023-05-13T13:40:20;39.47;36.45;42.16;;
42701;Laerm;28316;49.504;8.526;2023-05-13T13:42:46;39.43;36.45;41.68;;
42701;Laerm;28316;49.504;8.526;2023-05-13T13:45:13;39.51;36.20;42.16;;
42701;Laerm;28316;49.504;8.526;2023-05-13T13:47:39;39.49;36.20;44.65;;
42701;Laerm;28316;49.504;8.526;2023-05-13T13:50:05;39.43;36.45;43.68;;
42701;Laerm;28316;49.504;8.526;2023-05-13T13:52:31;39.47;36.45;41.68;;
42701;Laerm;28316;49.504;8.526;2023-05-13T13:54:57;39.40;36.20;41.46;;
42701;Laerm;28316;49.504;8.526;2023-05-13T13:57:23;39.39;36.45;41.38;;
42701;Laerm;28316;49.504;8.526;2023-05-13T13:59:48;39.38;35.94;41.46;;
42701;Laerm;28316;49.504;8.526;2023-05-13T14:02:15;39.36;36.45;41.38;;
42701;Laerm;28316;49.504;8.526;2023-05-13T14:04:41;39.41;36.45;42.35;;
42701;Laerm;28316;49.504;8.526;2023-05-13T14:07:07;39.43;35.31;41.53;;
42701;Laerm;28316;49.504;8.526;2023-05-13T14:09:33;39.49;35.94;41.53;;
42701;Laerm;28316;49.504;8.526;2023-05-13T14:11:58;39.44;36.45;41.68;;